Flag for USA

Past Weather in Shenandoah National Park, Virginia, USA — Yesterday and Last 2 Weeks

Currently: 72 °F. Mostly cloudy. (Weather station: warren County Airport, USA). See more current weather

Past Weather in Shenandoah National Park — Graph

°F

Shenandoah National Park Temperature Yesterday

Maximum temperature yesterday: 86 °F (at 4:35 pm)
Minimum temperature yesterday: 68 °F (at 12:55 am)
Average temperature yesterday: 75 °F

High & Low Weather Summary for the Past Weeks

 TemperatureHumidityPressure
High102 °F (Jul 16, 2:55 pm)100% (Jul 18, 7:35 am)30.19 "Hg (Jul 18, 7:35 am)
Low64 °F (Jul 12, 5:35 am)27% (Jul 14, 3:55 pm)29.70 "Hg (Jul 10, 4:55 pm)
Average82 °F61%29.97 "Hg
* Reported Jul 5 12:15 am — Jul 20 12:55 am, Shenandoah National Park. Weather by CustomWeather, © 2024

Note: Actual official high and low records may vary slightly from our data, if they occured in-between our weather recording intervals... More about our weather records

Shenandoah National Park Weather History for the Previous 24 Hours

Scroll right to see more
 ConditionsComfort  
Time TempWeatherWind HumidityBarometerVisibility
12:55 am
Sat, Jul 20
72 °FOvercast.No wind88%30.13 "Hg10 mi
12:35 am72 °FMostly cloudy.No wind88%30.13 "Hg10 mi
12:15 am72 °FOvercast.No wind88%30.13 "Hg10 mi
11:55 pm
Fri, Jul 19
72 °FMostly cloudy.No wind88%30.13 "Hg10 mi
11:35 pm72 °FOvercast.6 mph88%30.14 "Hg10 mi
11:15 pm77 °FOvercast.5 mph65%30.13 "Hg10 mi
10:55 pm77 °FMostly cloudy.5 mph65%30.12 "Hg10 mi
10:35 pm79 °FMostly cloudy.5 mph61%30.12 "Hg10 mi
9:55 pm77 °FPartly cloudy.No wind65%30.12 "Hg10 mi
9:35 pm75 °FClear.No wind69%30.11 "Hg10 mi
9:15 pm77 °FClear.No wind65%30.10 "Hg10 mi
8:55 pm77 °FPassing clouds.No wind65%30.10 "Hg10 mi
8:35 pm77 °FPassing clouds.No wind65%30.10 "Hg10 mi
8:15 pm79 °FSunny.No wind61%30.09 "Hg10 mi
7:55 pm79 °FSunny.5 mph61%30.10 "Hg10 mi
7:35 pm81 °FSunny.5 mph58%30.09 "Hg10 mi
7:15 pm81 °FScattered clouds.5 mph58%30.08 "Hg10 mi
6:55 pm82 °FScattered clouds.8 mph55%30.08 "Hg10 mi
6:35 pm82 °FBroken clouds.5 mph55%30.07 "Hg10 mi
5:55 pm82 °FBroken clouds.6 mph51%30.07 "Hg10 mi
5:15 pm82 °FBroken clouds.6 mph51%30.08 "Hg10 mi
4:55 pm84 °FScattered clouds.6 mph48%30.08 "Hg10 mi
4:35 pm86 °FScattered clouds.6 mph46%30.09 "Hg10 mi
3:55 pm82 °FScattered clouds.6 mph51%30.10 "Hg10 mi
3:15 pm82 °FBroken clouds.No wind48%30.12 "Hg10 mi
2:55 pm82 °FMostly cloudy.5 mph48%30.13 "Hg10 mi
2:35 pm82 °FBroken clouds.No wind48%30.13 "Hg10 mi
1:55 pm82 °FBroken clouds.5 mph48%30.15 "Hg10 mi
1:35 pm82 °FBroken clouds.5 mph48%30.15 "Hg10 mi
1:15 pm82 °FScattered clouds.No wind48%30.15 "Hg10 mi
12:55 pm81 °FPartly sunny.6 mph51%30.16 "Hg10 mi
12:35 pm79 °FPartly sunny.No wind54%30.16 "Hg10 mi
12:15 pm77 °FMostly cloudy.3 mph54%30.17 "Hg10 mi
11:55 am77 °FOvercast.No wind54%30.17 "Hg10 mi
11:15 am75 °FOvercast.5 mph57%30.17 "Hg10 mi
10:55 am73 °FOvercast.No wind57%30.17 "Hg10 mi
10:35 am75 °FCloudy.5 mph54%30.17 "Hg10 mi
10:15 am73 °FMostly cloudy.3 mph53%30.17 "Hg10 mi
9:35 am72 °FOvercast.5 mph57%30.17 "Hg10 mi
8:55 am72 °FCloudy.3 mph57%30.17 "Hg10 mi
8:35 am72 °FPartly sunny.6 mph57%30.17 "Hg10 mi
8:15 am70 °FMostly cloudy.3 mph60%30.16 "Hg10 mi
7:55 am70 °FScattered clouds.6 mph60%30.16 "Hg10 mi
7:35 am70 °FPartly sunny.5 mph60%30.15 "Hg10 mi
7:15 am68 °FOvercast.No wind64%30.15 "Hg10 mi
6:55 am68 °FOvercast.No wind64%30.14 "Hg10 mi
6:35 am68 °FMostly cloudy.No wind64%30.12 "Hg10 mi
6:15 am68 °FOvercast.No wind60%30.12 "Hg10 mi
5:55 am68 °FPartly cloudy.No wind64%30.11 "Hg10 mi
5:35 am68 °FPartly cloudy.No wind64%30.10 "Hg10 mi
5:15 am68 °FMostly cloudy.No wind64%30.10 "Hg10 mi
4:55 am68 °FOvercast.No wind73%30.09 "Hg10 mi
4:35 am70 °FOvercast.No wind60%30.09 "Hg10 mi
3:55 am70 °FMostly cloudy.No wind60%30.08 "Hg10 mi
3:35 am70 °FPassing clouds.No wind60%30.08 "Hg10 mi
2:55 am72 °FOvercast.No wind61%30.07 "Hg10 mi
2:35 am72 °FOvercast.No wind65%30.08 "Hg10 mi
2:15 am72 °FOvercast.No wind69%30.07 "Hg10 mi
1:35 am68 °FOvercast.No wind88%30.07 "Hg10 mi
1:15 am70 °FPartly cloudy.No wind83%30.07 "Hg10 mi
Weather by CustomWeather, © 2024

See weather overview